Time;durP1;ratioP1;P1;durP2;ratioP2;P2;SDS_P1;SDS_P2;PMS_P1;PMS_P2;Temp;Humidity;BMP_temperature;BMP_pressure;BME280_temperature;BME280_humidity;BME280_pressure;Samples;Min_cycle;Max_cycle;Signal;HPM_P1;HPM_P2
2022/04/11 00:02:08;;;;;;;11.13;7.72;;;3.30;99.90;;;;;;4980224;28;20034;-77
2022/04/11 00:07:56;;;;;;;11.10;6.97;;;3.30;99.90;;;;;;4947915;28;20098;-78
2022/04/11 00:10:21;;;;;;;11.80;6.60;;;3.30;99.90;;;;;;4958505;28;20039;-80
2022/04/11 00:12:47;;;;;;;9.77;6.95;;;3.30;99.90;;;;;;4952810;29;20019;-78
2022/04/11 00:15:12;;;;;;;8.50;7.57;;;3.30;99.90;;;;;;4955521;29;20039;-80
2022/04/11 00:17:38;;;;;;;8.82;7.05;;;3.20;99.90;;;;;;4950720;29;20482;-76
2022/04/11 00:20:05;;;;;;;7.88;7.07;;;3.30;99.90;;;;;;4952775;28;20054;-75
2022/04/11 00:22:34;;;;;;;10.70;7.63;;;3.30;99.90;;;;;;4962288;28;20019;-78
2022/04/11 00:25:00;;;;;;;8.02;7.20;;;3.30;99.90;;;;;;4951533;28;20024;-78
2022/04/11 00:27:26;;;;;;;8.88;8.02;;;3.30;99.90;;;;;;4953651;28;20034;-79
2022/04/11 00:29:51;;;;;;;12.13;8.60;;;3.20;99.90;;;;;;4943533;29;20063;-78
2022/04/11 00:32:17;;;;;;;22.38;9.40;;;3.20;99.90;;;;;;4938938;29;20497;-79
2022/04/11 00:34:42;;;;;;;11.82;7.60;;;3.10;99.90;;;;;;4956759;28;20027;-76
2022/04/11 00:37:08;;;;;;;12.65;8.10;;;3.10;99.90;;;;;;4939513;29;20041;-82
2022/04/11 00:39:33;;;;;;;8.15;7.35;;;3.10;99.90;;;;;;4939578;29;20106;-79
2022/04/11 00:42:15;;;;;;;9.93;7.32;;;3.10;99.90;;;;;;4965086;28;20019;-81
2022/04/11 00:44:41;;;;;;;10.00;7.88;;;3.00;99.90;;;;;;4949453;29;20027;-80
2022/04/11 00:47:07;;;;;;;10.38;8.00;;;3.00;99.90;;;;;;4948233;29;20453;-80
2022/04/11 00:49:32;;;;;;;13.40;8.25;;;3.00;99.90;;;;;;4948562;29;20028;-80
2022/04/11 00:51:58;;;;;;;8.88;7.55;;;3.00;99.90;;;;;;4939340;29;20031;-79
2022/04/11 00:54:27;;;;;;;8.23;7.00;;;2.90;99.90;;;;;;4931820;29;20031;-79
2022/04/11 00:56:54;;;;;;;9.25;7.70;;;2.90;99.90;;;;;;4948309;29;20043;-80
2022/04/11 00:59:20;;;;;;;10.27;7.20;;;2.90;99.90;;;;;;4949443;28;20028;-79
2022/04/11 01:01:47;;;;;;;12.57;6.93;;;2.90;99.90;;;;;;4942556;29;20056;-80
2022/04/11 01:04:23;;;;;;;12.35;7.88;;;2.90;99.90;;;;;;4946687;29;20402;-80
2022/04/11 01:06:50;;;;;;;9.63;7.32;;;2.90;99.90;;;;;;4948399;29;20019;-77
2022/04/11 01:09:15;;;;;;;8.65;7.40;;;2.90;99.90;;;;;;4938709;29;20493;-79
2022/04/11 01:11:41;;;;;;;12.05;7.05;;;2.90;99.90;;;;;;4937822;29;20038;-81
2022/04/11 01:14:07;;;;;;;12.32;7.53;;;2.90;99.90;;;;;;4938692;29;20126;-80
2022/04/11 01:16:33;;;;;;;7.22;6.30;;;2.80;99.90;;;;;;4949872;28;20061;-78
2022/04/11 01:18:58;;;;;;;8.70;6.88;;;2.80;99.90;;;;;;4949100;28;20110;-78
2022/04/11 01:21:28;;;;;;;10.25;6.90;;;2.80;99.90;;;;;;4952603;28;20077;-78
2022/04/11 01:23:53;;;;;;;10.20;7.53;;;2.80;99.90;;;;;;4941868;28;20035;-79
2022/04/11 01:26:22;;;;;;;7.55;6.82;;;2.70;99.90;;;;;;4938041;29;20024;-79
2022/04/11 01:28:49;;;;;;;9.98;7.07;;;2.80;99.90;;;;;;4966947;28;20026;-78
2022/04/11 01:31:15;;;;;;;11.60;7.60;;;2.80;99.90;;;;;;4956110;28;20062;-78
2022/04/11 01:33:42;;;;;;;9.55;6.60;;;2.80;99.90;;;;;;4971410;28;20544;-79
2022/04/11 01:36:07;;;;;;;10.68;7.55;;;2.90;99.90;;;;;;4965151;28;20027;-78
2022/04/11 01:38:33;;;;;;;8.75;7.47;;;2.80;99.90;;;;;;4955352;29;20511;-79
2022/04/11 01:40:59;;;;;;;13.13;7.65;;;2.90;99.90;;;;;;4956408;29;20038;-78
2022/04/11 01:43:25;;;;;;;8.57;7.78;;;2.90;99.90;;;;;;4959168;29;20035;-78
2022/04/11 01:45:51;;;;;;;8.43;6.88;;;2.90;99.90;;;;;;4987552;28;20011;-78
2022/04/11 01:48:17;;;;;;;11.45;7.10;;;2.90;99.90;;;;;;4986680;28;20027;-79
2022/04/11 01:50:44;;;;;;;9.15;7.18;;;2.90;99.90;;;;;;4966388;28;20033;-77
2022/04/11 01:53:11;;;;;;;10.27;7.25;;;3.00;99.90;;;;;;4969611;28;20062;-78
2022/04/11 01:55:38;;;;;;;10.38;6.55;;;3.10;99.90;;;;;;4977893;28;20038;-78
2022/04/11 01:58:04;;;;;;;9.27;7.13;;;3.20;99.90;;;;;;4951830;29;20060;-79
2022/04/11 02:00:30;;;;;;;8.93;6.95;;;3.20;99.90;;;;;;4942147;28;20092;-79
2022/04/11 02:02:57;;;;;;;7.88;7.05;;;3.10;99.90;;;;;;4960947;28;20520;-79
2022/04/11 02:05:23;;;;;;;11.45;7.80;;;3.20;99.90;;;;;;4956656;28;20031;-77
2022/04/11 02:07:48;;;;;;;9.25;6.22;;;3.30;99.90;;;;;;4950538;28;20562;-79
2022/04/11 02:10:14;;;;;;;8.07;7.00;;;3.30;99.90;;;;;;4960299;28;20494;-78
2022/04/11 02:12:40;;;;;;;12.13;7.70;;;3.30;99.90;;;;;;4950273;29;20034;-78
2022/04/11 02:15:06;;;;;;;9.48;6.45;;;3.30;99.90;;;;;;4975204;28;20038;-78
2022/04/11 02:17:32;;;;;;;7.68;6.53;;;3.20;99.90;;;;;;4964215;29;20011;-78
2022/04/11 02:19:57;;;;;;;9.73;6.80;;;3.10;99.90;;;;;;4985987;28;20095;-78
2022/04/11 02:22:23;;;;;;;10.13;7.78;;;3.10;99.90;;;;;;4963398;28;20121;-78
2022/04/11 02:24:50;;;;;;;7.68;6.97;;;3.10;99.90;;;;;;4960688;28;20027;-78
2022/04/11 02:27:15;;;;;;;9.70;7.45;;;3.10;99.90;;;;;;4980632;28;20043;-79
2022/04/11 02:29:41;;;;;;;9.05;6.57;;;3.20;99.90;;;;;;4972575;28;20022;-78
2022/04/11 02:32:07;;;;;;;7.47;6.72;;;3.40;99.90;;;;;;4979172;28;20087;-78
2022/04/11 02:34:32;;;;;;;7.63;6.57;;;3.40;99.90;;;;;;4968832;28;20034;-78
2022/04/11 02:36:58;;;;;;;7.43;6.13;;;3.30;99.90;;;;;;4968263;28;20027;-78
2022/04/11 02:39:24;;;;;;;8.18;6.32;;;3.50;99.90;;;;;;4954526;28;20118;-78
2022/04/11 02:41:49;;;;;;;9.07;6.72;;;3.60;99.90;;;;;;4955936;28;20038;-78
2022/04/11 02:44:15;;;;;;;8.00;5.72;;;3.60;99.90;;;;;;4976762;28;20015;-78
2022/04/11 02:46:42;;;;;;;8.48;7.65;;;3.50;99.90;;;;;;4955828;28;20047;-77
2022/04/11 02:49:08;;;;;;;8.38;6.53;;;3.60;99.90;;;;;;4963380;28;20060;-76
2022/04/11 02:51:34;;;;;;;9.50;6.07;;;3.50;99.90;;;;;;4970157;28;20036;-76
2022/04/11 02:54:02;;;;;;;7.45;6.68;;;3.50;99.90;;;;;;4953010;28;20027;-77
2022/04/11 02:56:27;;;;;;;11.38;6.68;;;3.60;99.90;;;;;;4965330;28;20022;-78
2022/04/11 02:58:53;;;;;;;8.88;7.75;;;3.60;99.90;;;;;;4979351;28;20088;-78
2022/04/11 03:01:18;;;;;;;8.48;5.57;;;3.50;99.90;;;;;;4963074;28;20035;-77
2022/04/11 03:03:44;;;;;;;6.95;6.25;;;3.40;99.90;;;;;;4959746;28;20024;-78
2022/04/11 03:06:10;;;;;;;10.50;7.55;;;3.50;99.90;;;;;;4955899;28;20035;-77
2022/04/11 03:08:35;;;;;;;8.25;6.80;;;3.50;99.90;;;;;;4957410;28;20590;-78
2022/04/11 03:11:01;;;;;;;8.05;6.57;;;3.50;99.90;;;;;;4955849;28;20034;-78
2022/04/11 03:13:27;;;;;;;11.10;7.82;;;3.40;99.90;;;;;;4961390;28;20037;-79
2022/04/11 03:15:52;;;;;;;10.88;8.10;;;3.50;99.90;;;;;;4936176;28;20094;-79
2022/04/11 03:18:18;;;;;;;8.45;7.00;;;3.60;99.90;;;;;;4942108;28;20037;-78
2022/04/11 03:20:44;;;;;;;9.02;7.05;;;3.50;99.90;;;;;;4965149;28;20019;-78
2022/04/11 03:23:09;;;;;;;9.48;6.80;;;3.40;99.90;;;;;;4950350;28;20118;-79
2022/04/11 03:25:36;;;;;;;14.63;9.38;;;3.30;99.90;;;;;;4960538;28;20023;-78
2022/04/11 03:28:02;;;;;;;9.77;7.50;;;3.30;99.90;;;;;;4967319;28;20023;-78
2022/04/11 03:30:28;;;;;;;11.35;7.35;;;3.20;99.90;;;;;;4960651;28;20440;-78
2022/04/11 03:32:53;;;;;;;10.75;7.60;;;3.20;99.90;;;;;;4956066;28;20050;-79
2022/04/11 03:35:19;;;;;;;10.75;7.20;;;3.20;99.90;;;;;;4959924;28;20078;-78
2022/04/11 03:37:44;;;;;;;13.02;7.57;;;3.30;99.90;;;;;;4960091;28;20019;-77
2022/04/11 03:40:10;;;;;;;9.63;7.50;;;3.40;99.90;;;;;;4966252;28;20031;-78
2022/04/11 03:42:36;;;;;;;10.02;7.55;;;3.30;99.90;;;;;;4953861;28;20062;-77
2022/04/11 03:45:02;;;;;;;11.52;8.07;;;3.40;99.90;;;;;;4953761;28;20091;-77
2022/04/11 03:47:28;;;;;;;9.48;7.95;;;3.30;99.90;;;;;;4942933;28;20026;-78
2022/04/11 03:49:53;;;;;;;13.30;8.07;;;3.20;99.90;;;;;;4970678;28;20027;-79
2022/04/11 03:52:19;;;;;;;10.55;8.30;;;3.20;99.90;;;;;;4964157;28;20114;-78
2022/04/11 03:54:44;;;;;;;13.75;7.88;;;3.10;99.90;;;;;;4958104;28;20046;-78
2022/04/11 03:57:10;;;;;;;11.20;7.85;;;3.10;99.90;;;;;;4955106;28;20082;-78
2022/04/11 03:59:35;;;;;;;8.43;7.35;;;3.10;99.90;;;;;;4941101;28;20093;-78
2022/04/11 04:02:01;;;;;;;11.88;7.30;;;3.10;99.90;;;;;;4949157;28;20122;-78
2022/04/11 04:04:26;;;;;;;8.95;7.75;;;3.20;99.90;;;;;;4958486;28;20023;-79
2022/04/11 04:06:52;;;;;;;13.57;7.97;;;3.20;99.90;;;;;;4936274;29;20033;-77
2022/04/11 04:09:17;;;;;;;11.98;7.75;;;3.30;99.90;;;;;;4942965;29;20082;-78
2022/04/11 04:11:43;;;;;;;13.13;8.98;;;3.20;99.90;;;;;;4949404;28;20027;-78
2022/04/11 04:14:08;;;;;;;13.82;7.95;;;3.10;99.90;;;;;;4962294;28;20054;-78
2022/04/11 04:16:34;;;;;;;10.80;8.15;;;3.00;99.90;;;;;;4966705;28;20037;-78
2022/04/11 04:18:59;;;;;;;10.63;7.95;;;3.00;99.90;;;;;;4946417;29;20024;-77
2022/04/11 04:21:25;;;;;;;11.15;7.80;;;3.00;99.90;;;;;;4954258;28;20555;-78
2022/04/11 04:23:50;;;;;;;10.93;8.00;;;2.90;99.90;;;;;;4955355;28;20100;-78
2022/04/11 04:26:16;;;;;;;9.43;8.25;;;2.90;99.90;;;;;;4958262;28;20031;-78
2022/04/11 04:28:41;;;;;;;12.65;9.40;;;2.90;99.90;;;;;;4958453;28;20109;-79
2022/04/11 04:31:07;;;;;;;13.10;7.45;;;2.90;99.90;;;;;;4959622;28;20035;-78
2022/04/11 04:33:32;;;;;;;9.40;8.05;;;2.90;99.90;;;;;;4955687;28;20039;-78
2022/04/11 04:35:58;;;;;;;18.70;10.13;;;2.90;99.90;;;;;;4958843;28;20035;-78
2022/04/11 04:38:23;;;;;;;10.93;8.52;;;2.90;99.90;;;;;;4953336;28;20027;-78
2022/04/11 04:40:49;;;;;;;9.85;8.30;;;2.90;99.90;;;;;;4956762;28;20453;-78
2022/04/11 04:43:14;;;;;;;14.88;7.50;;;2.80;99.90;;;;;;4967130;28;20050;-78
2022/04/11 04:45:40;;;;;;;10.02;8.07;;;2.80;99.90;;;;;;4943754;29;20090;-79
2022/04/11 04:48:06;;;;;;;18.45;10.77;;;2.80;99.90;;;;;;4962096;28;20047;-79
2022/04/11 04:50:32;;;;;;;10.80;9.45;;;2.80;99.90;;;;;;4946227;29;20027;-79
2022/04/11 04:52:58;;;;;;;9.65;8.75;;;2.90;99.90;;;;;;4956800;28;20029;-78
2022/04/11 04:55:24;;;;;;;7.88;7.07;;;2.90;99.90;;;;;;4962317;28;20031;-78
2022/04/11 04:57:49;;;;;;;12.05;8.52;;;2.90;99.90;;;;;;4955409;28;20037;-79
2022/04/11 05:00:15;;;;;;;15.50;8.77;;;2.80;99.90;;;;;;4944408;28;20027;-78
2022/04/11 05:02:42;;;;;;;13.63;7.65;;;2.80;99.90;;;;;;4970008;28;20547;-78
2022/04/11 05:05:10;;;;;;;11.95;8.02;;;2.70;99.90;;;;;;4943779;28;20097;-79
2022/04/11 05:07:35;;;;;;;13.48;9.02;;;2.70;99.90;;;;;;4948977;28;20034;-79
2022/04/11 05:10:04;;;;;;;15.35;8.80;;;2.80;99.90;;;;;;4962013;28;20038;-78
2022/04/11 05:12:29;;;;;;;12.35;8.73;;;2.80;99.90;;;;;;4954629;28;20538;-79
2022/04/11 05:14:55;;;;;;;11.35;7.60;;;2.90;99.90;;;;;;4950660;28;20047;-78
2022/04/11 05:17:22;;;;;;;10.65;8.55;;;3.10;99.90;;;;;;4954735;28;20023;-78
2022/04/11 05:19:48;;;;;;;13.70;8.75;;;3.10;99.90;;;;;;4946647;28;20425;-78
2022/04/11 05:22:13;;;;;;;12.77;8.40;;;3.20;99.90;;;;;;4965295;28;20046;-79
2022/04/11 05:24:39;;;;;;;13.85;8.88;;;3.20;99.90;;;;;;4963470;28;20106;-79
2022/04/11 05:27:04;;;;;;;9.85;8.23;;;3.30;99.90;;;;;;4961006;28;20450;-79
2022/04/11 05:29:30;;;;;;;12.18;8.60;;;3.30;99.90;;;;;;4960495;28;20019;-76
2022/04/11 05:31:55;;;;;;;18.08;7.97;;;3.50;99.90;;;;;;4946469;28;20031;-78
2022/04/11 05:34:23;;;;;;;11.73;8.55;;;3.60;99.90;;;;;;4939365;28;20035;-78
2022/04/11 05:36:49;;;;;;;9.27;7.82;;;4.00;99.90;;;;;;4949918;28;20385;-79
2022/04/11 05:39:14;;;;;;;11.38;7.13;;;4.40;99.90;;;;;;4958391;28;20042;-79
2022/04/11 05:41:40;;;;;;;6.25;5.20;;;4.90;99.90;;;;;;4937979;28;21344;-79
2022/04/11 05:44:05;;;;;;;8.90;7.25;;;5.50;99.90;;;;;;4950759;28;20039;-78
2022/04/11 05:46:31;;;;;;;8.75;6.85;;;6.00;99.90;;;;;;4960023;28;20031;-78
2022/04/11 05:48:56;;;;;;;13.52;6.43;;;6.50;99.90;;;;;;4974328;28;20050;-79
2022/04/11 05:51:22;;;;;;;9.10;5.55;;;7.10;99.90;;;;;;4957974;28;20030;-79
2022/04/11 05:53:47;;;;;;;8.95;6.45;;;7.80;99.90;;;;;;4967919;28;20480;-79
2022/04/11 05:56:13;;;;;;;6.88;5.68;;;8.20;99.90;;;;;;4945230;28;20020;-78
2022/04/11 05:58:38;;;;;;;10.95;5.47;;;8.20;99.90;;;;;;4951426;28;20371;-79
2022/04/11 06:01:04;;;;;;;10.48;6.65;;;7.40;99.90;;;;;;4953720;28;20034;-78
2022/04/11 06:03:29;;;;;;;7.00;5.68;;;6.80;99.90;;;;;;4948061;29;20023;-78
2022/04/11 06:05:55;;;;;;;11.02;6.25;;;6.50;99.90;;;;;;4959347;28;20073;-78
2022/04/11 06:08:20;;;;;;;12.60;7.50;;;6.30;99.90;;;;;;4945780;28;20071;-79
2022/04/11 06:10:46;;;;;;;10.70;7.28;;;6.00;99.90;;;;;;4950877;29;20381;-78
2022/04/11 06:13:12;;;;;;;10.75;7.25;;;6.00;99.90;;;;;;4965021;28;20115;-79
2022/04/11 06:15:37;;;;;;;14.65;8.40;;;5.90;99.90;;;;;;4970783;28;20481;-78
2022/04/11 06:18:03;;;;;;;13.82;8.77;;;5.80;99.90;;;;;;4941426;29;20031;-79
2022/04/11 06:20:29;;;;;;;14.20;9.00;;;5.50;99.90;;;;;;4961017;29;20026;-79
2022/04/11 06:22:54;;;;;;;9.50;7.32;;;5.30;99.90;;;;;;4947118;28;20126;-78
2022/04/11 06:25:20;;;;;;;11.88;8.07;;;5.40;99.90;;;;;;4971963;28;20034;-78
2022/04/11 06:27:45;;;;;;;13.93;7.80;;;5.50;99.90;;;;;;4942207;28;20023;-78
2022/04/11 06:30:11;;;;;;;10.13;8.27;;;5.80;99.90;;;;;;4965174;28;20035;-78
2022/04/11 06:32:37;;;;;;;14.02;8.43;;;5.90;99.90;;;;;;4944958;28;20022;-79
2022/04/11 06:35:03;;;;;;;17.88;8.02;;;5.90;99.90;;;;;;4971712;28;20441;-79
2022/04/11 06:37:28;;;;;;;13.60;7.35;;;6.00;99.90;;;;;;4957777;28;20051;-78
2022/04/11 06:39:55;;;;;;;9.55;7.28;;;6.20;99.90;;;;;;4959012;28;20400;-80
2022/04/11 06:42:21;;;;;;;12.98;7.40;;;6.30;99.90;;;;;;4962116;28;20094;-78
2022/04/11 06:44:46;;;;;;;13.00;7.70;;;6.30;99.90;;;;;;4945808;29;20027;-78
2022/04/11 06:47:12;;;;;;;16.30;8.23;;;6.60;99.90;;;;;;4958076;28;20184;-79
2022/04/11 06:49:38;;;;;;;14.55;8.05;;;6.80;99.90;;;;;;4952690;28;20030;-79
2022/04/11 06:52:05;;;;;;;22.05;9.52;;;6.90;99.90;;;;;;4971488;28;20027;-80
2022/04/11 06:54:31;;;;;;;14.98;9.05;;;7.00;99.90;;;;;;4965864;28;20115;-79
2022/04/11 06:56:57;;;;;;;14.55;8.52;;;7.10;99.90;;;;;;4956179;28;20055;-78
2022/04/11 06:59:22;;;;;;;16.50;7.95;;;7.20;99.90;;;;;;4957102;28;20046;-78
2022/04/11 07:01:48;;;;;;;11.80;8.27;;;7.20;99.90;;;;;;4950818;28;20050;-79
2022/04/11 07:04:13;;;;;;;13.27;7.65;;;7.40;99.90;;;;;;4944241;28;20039;-79
2022/04/11 07:06:39;;;;;;;10.25;7.80;;;7.40;99.90;;;;;;4947029;28;20417;-79
2022/04/11 07:09:04;;;;;;;15.45;7.47;;;7.50;99.90;;;;;;4962866;28;20058;-78
2022/04/11 07:11:33;;;;;;;11.90;6.75;;;7.60;99.90;;;;;;4968215;28;20472;-79
2022/04/11 07:13:58;;;;;;;10.43;6.82;;;7.80;99.90;;;;;;4979506;28;20046;-79
2022/04/11 07:16:27;;;;;;;6.88;6.18;;;7.90;99.90;;;;;;4976314;28;20019;-78
2022/04/11 07:18:52;;;;;;;9.57;7.03;;;7.90;99.90;;;;;;4962483;28;20099;-77
2022/04/11 07:21:18;;;;;;;9.93;5.82;;;7.90;99.90;;;;;;4988602;28;20016;-78
2022/04/11 07:23:44;;;;;;;7.10;6.40;;;8.00;99.90;;;;;;4981041;28;20027;-77
2022/04/11 07:26:10;;;;;;;9.93;7.47;;;8.10;99.90;;;;;;4966339;28;20032;-80
2022/04/11 07:28:35;;;;;;;6.85;6.15;;;8.20;99.90;;;;;;4944168;29;20029;-78
2022/04/11 07:31:01;;;;;;;9.75;7.03;;;8.30;99.90;;;;;;4942454;28;20483;-78
2022/04/11 07:33:27;;;;;;;10.13;6.95;;;8.40;99.90;;;;;;4970298;28;20090;-78
2022/04/11 07:35:52;;;;;;;9.32;6.45;;;8.60;99.90;;;;;;4963766;28;20062;-78
2022/04/11 07:38:19;;;;;;;9.68;6.40;;;8.70;99.90;;;;;;4947975;28;20045;-79
2022/04/11 07:40:44;;;;;;;12.20;7.18;;;8.70;99.90;;;;;;4968331;28;20034;-80
2022/04/11 07:43:10;;;;;;;10.25;7.18;;;8.80;99.90;;;;;;4955766;28;20024;-79
2022/04/11 07:45:35;;;;;;;7.90;6.88;;;8.90;99.90;;;;;;4955668;28;20023;-78
2022/04/11 07:48:01;;;;;;;6.20;5.30;;;9.00;99.90;;;;;;4964319;28;20031;-79
2022/04/11 07:50:27;;;;;;;7.78;6.72;;;9.00;99.90;;;;;;4945519;29;20101;-80
2022/04/11 07:52:53;;;;;;;6.82;6.00;;;9.20;99.90;;;;;;4939937;29;20557;-79
2022/04/11 07:55:19;;;;;;;8.30;6.30;;;9.20;99.90;;;;;;4961432;28;20123;-79
2022/04/11 07:57:44;;;;;;;15.65;5.60;;;9.30;99.90;;;;;;4957108;28;20037;-78
2022/04/11 08:00:10;;;;;;;9.75;5.15;;;9.40;99.90;;;;;;4964560;28;20046;-79
2022/04/11 08:02:36;;;;;;;5.45;4.82;;;9.60;99.90;;;;;;4975766;28;20023;-79
2022/04/11 08:05:03;;;;;;;5.10;4.13;;;9.80;99.90;;;;;;4948962;29;20031;-77
2022/04/11 08:07:35;;;;;;;4.57;4.07;;;9.90;99.90;;;;;;4968982;28;20035;-79
2022/04/11 08:10:05;;;;;;;5.50;4.22;;;10.10;99.90;;;;;;4952752;28;20574;-78
2022/04/11 08:12:31;;;;;;;5.80;3.97;;;10.20;99.90;;;;;;4965015;28;20115;-79
2022/04/11 08:14:57;;;;;;;4.30;3.80;;;10.20;99.90;;;;;;4960869;28;20038;-79
2022/04/11 08:17:23;;;;;;;6.53;3.50;;;10.20;99.90;;;;;;4946447;29;20023;-79
2022/04/11 08:19:49;;;;;;;6.05;4.20;;;10.30;99.90;;;;;;4954570;28;20389;-78
2022/04/11 08:22:14;;;;;;;8.02;3.55;;;10.40;99.90;;;;;;4951954;28;20085;-80
2022/04/11 08:24:40;;;;;;;5.15;3.75;;;10.40;99.90;;;;;;4963098;28;20150;-79
2022/04/11 08:27:05;;;;;;;5.45;3.75;;;10.50;99.40;;;;;;4945828;28;20063;-79
2022/04/11 08:29:31;;;;;;;6.20;3.60;;;10.60;99.50;;;;;;4946533;28;20121;-80
2022/04/11 08:31:56;;;;;;;3.78;2.83;;;10.70;99.90;;;;;;4963354;28;20023;-80
2022/04/11 08:34:22;;;;;;;3.95;3.55;;;10.70;98.90;;;;;;4947680;28;20026;-79
2022/04/11 08:36:48;;;;;;;5.10;3.05;;;11.00;99.00;;;;;;4950861;29;20019;-79
2022/04/11 08:39:14;;;;;;;7.50;4.30;;;11.30;97.60;;;;;;4960571;28;20440;-79
2022/04/11 08:41:40;;;;;;;7.53;3.80;;;11.20;97.70;;;;;;4965864;28;20409;-79
2022/04/11 08:44:06;;;;;;;5.00;2.85;;;11.40;97.60;;;;;;4952351;28;20035;-79
2022/04/11 08:46:33;;;;;;;3.13;2.72;;;11.30;96.60;;;;;;4970488;28;20046;-79
2022/04/11 08:49:04;;;;;;;4.65;2.65;;;11.30;96.40;;;;;;4941626;28;20059;-78
2022/04/11 08:51:31;;;;;;;5.30;2.90;;;11.40;95.60;;;;;;4963760;28;20079;-79
2022/04/11 08:54:01;;;;;;;5.30;2.85;;;11.70;95.60;;;;;;4965169;28;20407;-79
2022/04/11 08:56:28;;;;;;;3.10;2.65;;;11.70;95.30;;;;;;4958141;28;20016;-79
2022/04/11 08:58:55;;;;;;;3.40;2.40;;;11.80;95.00;;;;;;4953001;29;20359;-80
2022/04/11 09:01:21;;;;;;;5.30;2.17;;;11.70;95.30;;;;;;4958584;28;20448;-79
2022/04/11 09:03:47;;;;;;;3.10;2.20;;;11.90;94.30;;;;;;4963494;29;20030;-81
2022/04/11 09:06:15;;;;;;;4.53;2.55;;;12.00;94.10;;;;;;4960278;28;20027;-80
2022/04/11 09:08:51;;;;;;;2.65;2.35;;;12.20;93.50;;;;;;4941637;29;20442;-79
2022/04/11 09:11:37;;;;;;;5.32;2.83;;;12.10;93.10;;;;;;4937889;29;20075;-81
2022/04/11 09:14:07;;;;;;;7.53;3.25;;;12.30;93.10;;;;;;4939754;29;20031;-79
2022/04/11 09:16:48;;;;;;;5.88;2.50;;;12.20;93.20;;;;;;4956516;28;20022;-80
2022/04/11 09:19:24;;;;;;;4.38;2.53;;;12.30;92.60;;;;;;4949900;29;20397;-79
2022/04/11 09:21:50;;;;;;;2.97;2.20;;;12.50;92.80;;;;;;4962609;28;20067;-78
2022/04/11 09:24:19;;;;;;;4.03;2.67;;;12.60;92.20;;;;;;4948444;29;20032;-79
2022/04/11 09:26:47;;;;;;;8.88;3.55;;;12.70;92.00;;;;;;4959162;29;20062;-79
2022/04/11 09:29:15;;;;;;;4.75;2.70;;;12.80;91.20;;;;;;4935110;29;20038;-80
2022/04/11 09:31:41;;;;;;;2.92;2.63;;;12.80;91.40;;;;;;4962085;28;20031;-79
2022/04/11 09:34:25;;;;;;;5.45;2.75;;;12.80;91.50;;;;;;4952931;29;20058;-78
2022/04/11 09:37:00;;;;;;;7.57;2.58;;;12.80;90.90;;;;;;4939813;29;20115;-78
2022/04/11 09:39:28;;;;;;;3.28;2.22;;;12.80;90.40;;;;;;4940008;29;20019;-80
2022/04/11 09:41:54;;;;;;;2.33;1.98;;;12.90;90.00;;;;;;4938348;29;20493;-80
2022/04/11 09:44:24;;;;;;;3.97;2.63;;;12.80;90.20;;;;;;4941937;29;20020;-80
2022/04/11 09:46:51;;;;;;;3.20;2.13;;;12.80;90.20;;;;;;4960553;28;20046;-79
2022/04/11 09:49:18;;;;;;;3.83;1.80;;;13.20;88.10;;;;;;4943476;28;20031;-79
2022/04/11 09:52:04;;;;;;;1.92;1.65;;;13.10;87.40;;;;;;4960251;28;20043;-79
2022/04/11 09:54:30;;;;;;;1.95;1.60;;;13.30;87.10;;;;;;4957648;28;20023;-79
2022/04/11 09:56:58;;;;;;;2.67;2.30;;;13.40;86.40;;;;;;4935869;29;20035;-78
2022/04/11 09:59:24;;;;;;;2.63;2.22;;;13.40;84.80;;;;;;4942499;29;20023;-80
2022/04/11 10:01:53;;;;;;;2.65;2.28;;;13.70;85.30;;;;;;4940756;29;20027;-79
2022/04/11 10:04:19;;;;;;;2.40;2.03;;;13.80;84.00;;;;;;4959465;28;20031;-79
2022/04/11 10:06:44;;;;;;;2.28;1.50;;;13.90;82.40;;;;;;4942579;29;20031;-78
2022/04/11 10:09:11;;;;;;;3.95;1.70;;;13.90;82.10;;;;;;4944145;29;20042;-80
2022/04/11 10:11:36;;;;;;;3.55;2.00;;;13.90;81.80;;;;;;4940754;29;20385;-79
2022/04/11 10:14:04;;;;;;;6.13;2.15;;;13.90;82.30;;;;;;4942182;29;20028;-82
2022/04/11 10:16:29;;;;;;;2.80;1.80;;;13.90;83.20;;;;;;4964707;28;20068;-78
2022/04/11 10:19:02;;;;;;;2.70;1.98;;;14.00;83.20;;;;;;4958042;29;20413;-80
2022/04/11 10:21:28;;;;;;;5.53;2.90;;;14.10;82.40;;;;;;4948575;29;20070;-79
2022/04/11 10:24:02;;;;;;;2.20;1.70;;;14.30;79.90;;;;;;4929556;29;20071;-79
2022/04/11 10:26:48;;;;;;;3.15;1.80;;;14.20;77.20;;;;;;4956990;29;20042;-80
2022/04/11 10:29:36;;;;;;;2.17;1.52;;;14.30;79.20;;;;;;4932001;28;20036;-80
2022/04/11 10:32:12;;;;;;;3.65;2.65;;;14.50;76.30;;;;;;4941108;29;20035;-78
2022/04/11 10:34:50;;;;;;;3.90;1.88;;;14.20;77.80;;;;;;4956802;28;20031;-79
2022/04/11 10:37:17;;;;;;;2.03;1.33;;;14.20;76.80;;;;;;4956420;28;20099;-80
2022/04/11 10:39:44;;;;;;;1.98;1.67;;;14.40;75.70;;;;;;4942818;29;20481;-79
2022/04/11 10:42:12;;;;;;;2.45;1.75;;;14.50;75.30;;;;;;4958879;29;20109;-79
2022/04/11 10:44:40;;;;;;;1.88;1.40;;;14.70;73.50;;;;;;4961563;28;20027;-80
2022/04/11 10:47:11;;;;;;;3.40;1.80;;;14.60;75.00;;;;;;4963730;28;20404;-79
2022/04/11 10:49:49;;;;;;;3.45;1.52;;;14.30;74.70;;;;;;4958370;28;20516;-80
2022/04/11 10:52:31;;;;;;;3.45;1.75;;;14.40;75.40;;;;;;4958191;29;20031;-80
2022/04/11 10:55:17;;;;;;;3.00;1.70;;;14.50;73.20;;;;;;4962239;28;20038;-80
2022/04/11 10:57:45;;;;;;;5.70;1.85;;;14.90;73.50;;;;;;4953427;28;20023;-78
2022/04/11 11:00:23;;;;;;;1.60;1.30;;;14.90;71.90;;;;;;4964804;28;20487;-80
2022/04/11 11:02:59;;;;;;;3.10;1.42;;;14.90;72.80;;;;;;4959419;29;20385;-79
2022/04/11 11:05:36;;;;;;;1.50;1.40;;;14.70;71.90;;;;;;4951558;28;20039;-78
2022/04/11 11:08:07;;;;;;;2.58;2.05;;;14.80;72.50;;;;;;4963585;28;20035;-79
2022/04/11 11:11:21;;;;;;;5.00;2.00;;;14.80;73.40;;;;;;4963160;28;20031;-80
2022/04/11 11:13:48;;;;;;;1.88;1.60;;;14.80;73.80;;;;;;4935776;29;20035;-80
2022/04/11 11:16:14;;;;;;;3.85;2.28;;;14.90;72.20;;;;;;4936515;28;20043;-80
2022/04/11 11:18:46;;;;;;;2.00;1.80;;;14.80;72.60;;;;;;4966677;28;20016;-80
2022/04/11 11:21:12;;;;;;;7.38;1.70;;;14.70;72.80;;;;;;4962249;28;20035;-79
2022/04/11 11:23:37;;;;;;;3.22;2.10;;;14.70;74.90;;;;;;4957350;28;20023;-79
2022/04/11 11:26:09;;;;;;;3.97;2.00;;;15.00;71.80;;;;;;4944875;28;20041;-77
2022/04/11 11:28:35;;;;;;;2.58;1.65;;;15.00;71.60;;;;;;4963283;28;20074;-76
2022/04/11 11:31:01;;;;;;;2.00;1.80;;;15.10;71.10;;;;;;4954223;28;20401;-77
2022/04/11 11:33:27;;;;;;;4.22;2.08;;;15.00;69.30;;;;;;4963171;28;20027;-77
2022/04/11 11:35:55;;;;;;;2.25;1.48;;;15.10;68.80;;;;;;4954078;28;20027;-77
2022/04/11 11:38:29;;;;;;;3.25;1.50;;;15.00;69.60;;;;;;4956914;29;20461;-78
2022/04/11 11:40:57;;;;;;;3.08;1.70;;;15.00;71.10;;;;;;4960813;28;20472;-77
2022/04/11 11:43:27;;;;;;;2.92;1.40;;;15.10;72.00;;;;;;4957006;28;20015;-78
2022/04/11 11:46:00;;;;;;;2.92;2.10;;;15.40;70.60;;;;;;4953561;28;20061;-74
2022/04/11 11:48:28;;;;;;;4.43;2.17;;;15.30;69.50;;;;;;4938618;28;20342;-76
2022/04/11 11:50:56;;;;;;;2.75;1.58;;;15.60;67.50;;;;;;4957153;28;20077;-76
2022/04/11 11:53:23;;;;;;;2.40;1.58;;;15.80;66.70;;;;;;4956497;29;20558;-75
2022/04/11 11:55:57;;;;;;;3.45;2.10;;;15.90;66.90;;;;;;4953544;29;20019;-76
2022/04/11 11:58:34;;;;;;;1.85;1.70;;;16.10;66.60;;;;;;4945805;29;20075;-76
2022/04/11 12:00:59;;;;;;;2.20;1.65;;;16.00;66.60;;;;;;4953910;29;20027;-76
2022/04/11 12:06:09;;;;;;;2.13;1.48;;;15.60;69.20;;;;;;4961760;28;20765;-82
2022/04/11 12:08:35;;;;;;;2.00;1.50;;;15.80;66.30;;;;;;4957241;28;20035;-83
2022/04/11 12:11:01;;;;;;;2.50;1.83;;;16.20;64.90;;;;;;4968643;28;20024;-82
2022/04/11 12:13:32;;;;;;;2.40;1.80;;;16.30;66.60;;;;;;4963210;28;20083;-81
2022/04/11 12:16:08;;;;;;;;;;;16.50;66.40;;;;;;4966449;28;20177;-82
2022/04/11 12:18:53;;;;;;;3.45;2.53;;;16.30;64.70;;;;;;4971959;28;19937;-82
2022/04/11 12:21:30;;;;;;;2.55;1.67;;;16.20;64.70;;;;;;4964192;28;20028;-81
2022/04/11 12:23:56;;;;;;;3.40;1.45;;;16.30;65.00;;;;;;4973297;28;20031;-81
2022/04/11 12:26:31;;;;;;;2.10;1.50;;;16.60;64.30;;;;;;4969396;28;20038;-81
2022/04/11 12:28:57;;;;;;;1.92;1.77;;;16.80;63.40;;;;;;4961210;29;20102;-80
2022/04/11 12:31:23;;;;;;;4.13;2.10;;;16.70;63.40;;;;;;4950446;29;20015;-80
2022/04/11 12:33:51;;;;;;;2.90;1.70;;;16.70;63.30;;;;;;4967267;29;20035;-81
2022/04/11 12:36:27;;;;;;;2.20;1.73;;;16.40;63.80;;;;;;4965781;28;20055;-81
2022/04/11 12:38:55;;;;;;;1.85;1.73;;;16.50;63.10;;;;;;4947868;28;20046;-81
2022/04/11 12:41:36;;;;;;;2.45;1.58;;;16.70;62.90;;;;;;4962288;28;20023;-81
2022/04/11 12:44:18;;;;;;;7.05;2.22;;;16.90;61.60;;;;;;4960634;29;20460;-83
2022/04/11 12:46:47;;;;;;;3.15;1.80;;;16.60;62.00;;;;;;4963429;28;20071;-82
2022/04/11 12:49:17;;;;;;;2.20;1.45;;;16.50;61.90;;;;;;4967523;29;20027;-83
2022/04/11 12:51:57;;;;;;;2.03;1.80;;;16.80;62.20;;;;;;4961470;28;20076;-81
2022/04/11 12:54:22;;;;;;;2.15;1.55;;;17.00;61.20;;;;;;4973346;28;20029;-81
2022/04/11 12:56:51;;;;;;;1.40;1.30;;;17.00;60.70;;;;;;4966152;28;20010;-80
2022/04/11 12:59:28;;;;;;;3.60;1.80;;;17.10;58.80;;;;;;4982724;28;20019;-80